createdAt,value
2018-03-06T00:01:43.157Z,99.90
2018-03-06T00:04:09.262Z,99.90
2018-03-06T00:06:35.497Z,99.90
2018-03-06T00:09:03.813Z,99.90
2018-03-06T00:11:29.934Z,99.90
2018-03-06T00:13:56.135Z,99.90
2018-03-06T00:16:22.400Z,99.90
2018-03-06T00:18:48.784Z,99.90
2018-03-06T00:21:15.019Z,99.90
2018-03-06T00:23:42.397Z,99.90
2018-03-06T00:26:08.915Z,99.90
2018-03-06T00:28:35.788Z,99.90
2018-03-06T00:31:01.904Z,99.90
2018-03-06T00:33:28.098Z,99.90
2018-03-06T00:35:54.996Z,99.90
2018-03-06T00:38:21.301Z,99.90
2018-03-06T00:40:47.387Z,99.90
2018-03-06T00:43:13.556Z,99.90
2018-03-06T00:45:39.747Z,99.90
2018-03-06T00:48:05.972Z,99.90
2018-03-06T00:50:33.181Z,99.90
2018-03-06T00:53:00.078Z,99.90
2018-03-06T00:55:27.415Z,99.90
2018-03-06T00:57:53.445Z,99.90
2018-03-06T01:00:19.629Z,99.90
2018-03-06T01:02:46.897Z,99.90
2018-03-06T01:05:13.783Z,99.90
2018-03-06T01:07:40.332Z,99.90
2018-03-06T01:10:06.478Z,99.90
2018-03-06T01:12:33.418Z,99.90
2018-03-06T01:14:59.544Z,99.90
2018-03-06T01:17:26.697Z,99.90
2018-03-06T01:19:52.838Z,99.90
2018-03-06T01:22:19.056Z,99.90
2018-03-06T01:24:45.186Z,99.90
2018-03-06T01:27:11.318Z,99.90
2018-03-06T01:29:37.534Z,99.90
2018-03-06T01:32:04.266Z,99.90
2018-03-06T01:34:31.212Z,99.90
2018-03-06T01:36:58.578Z,99.90
2018-03-06T01:39:25.534Z,99.90
2018-03-06T01:41:51.851Z,99.90
2018-03-06T01:44:18.021Z,99.90
2018-03-06T01:46:44.107Z,99.90
2018-03-06T01:49:11.129Z,99.90
2018-03-06T01:51:51.779Z,99.90
2018-03-06T01:54:18.461Z,99.90
2018-03-06T01:56:44.683Z,99.90
2018-03-06T01:59:11.178Z,99.90
2018-03-06T02:01:38.114Z,99.90
2018-03-06T02:04:04.430Z,99.90
2018-03-06T02:06:31.286Z,99.90
2018-03-06T02:08:57.536Z,99.90
2018-03-06T02:11:24.409Z,99.90
2018-03-06T02:13:51.471Z,99.90
2018-03-06T02:16:17.665Z,99.90
2018-03-06T02:18:43.887Z,99.90
2018-03-06T02:21:09.983Z,99.90
2018-03-06T02:23:36.450Z,99.90
2018-03-06T02:26:03.843Z,99.90
2018-03-06T02:28:30.064Z,99.90
2018-03-06T02:30:57.369Z,99.90
2018-03-06T02:33:23.537Z,99.90
2018-03-06T02:35:49.673Z,99.90
2018-03-06T02:38:16.369Z,99.90
2018-03-06T02:40:42.604Z,99.90
2018-03-06T02:43:09.116Z,99.90
2018-03-06T02:45:36.129Z,99.90
2018-03-06T02:48:02.297Z,99.90
2018-03-06T02:50:29.559Z,99.90
2018-03-06T02:52:55.775Z,99.90
2018-03-06T02:55:22.680Z,99.90
2018-03-06T02:57:48.910Z,99.90
2018-03-06T03:00:15.078Z,99.90
2018-03-06T03:02:41.252Z,99.90
2018-03-06T03:05:08.076Z,99.90
2018-03-06T03:07:34.262Z,99.90
2018-03-06T03:10:00.791Z,99.90
2018-03-06T03:12:27.234Z,99.90
2018-03-06T03:14:53.443Z,99.90
2018-03-06T03:17:19.719Z,99.90
2018-03-06T03:19:46.554Z,99.90
2018-03-06T03:22:13.794Z,99.90
2018-03-06T03:24:39.921Z,99.90
2018-03-06T03:27:06.388Z,99.90
2018-03-06T03:29:33.601Z,99.90
2018-03-06T03:32:01.184Z,99.90
2018-03-06T03:34:27.416Z,99.90
2018-03-06T03:36:53.735Z,99.90
2018-03-06T03:39:19.995Z,99.90
2018-03-06T03:41:47.078Z,99.90
2018-03-06T03:44:13.349Z,99.90
2018-03-06T03:46:39.530Z,99.90
2018-03-06T03:49:05.858Z,99.90
2018-03-06T03:51:33.108Z,99.90
2018-03-06T03:54:00.200Z,99.90
2018-03-06T03:56:26.901Z,99.90
2018-03-06T03:58:53.266Z,99.90
2018-03-06T04:01:20.389Z,99.90
2018-03-06T04:03:46.442Z,99.90
2018-03-06T04:06:12.616Z,99.90
2018-03-06T04:08:38.679Z,99.90
2018-03-06T04:11:05.128Z,99.90
2018-03-06T04:13:31.269Z,99.90
2018-03-06T04:15:57.364Z,99.90
2018-03-06T04:18:24.277Z,99.90
2018-03-06T04:20:50.504Z,99.90
2018-03-06T04:23:16.656Z,99.90
2018-03-06T04:25:42.866Z,99.90
2018-03-06T04:28:10.028Z,99.90
2018-03-06T04:30:36.134Z,99.90
2018-03-06T04:33:02.202Z,99.90
2018-03-06T04:35:28.511Z,99.90
2018-03-06T04:37:54.614Z,99.90
2018-03-06T04:40:21.220Z,99.90
2018-03-06T04:42:47.289Z,99.90
2018-03-06T04:45:13.412Z,99.90
2018-03-06T04:47:40.242Z,99.90
2018-03-06T04:50:07.081Z,99.90
2018-03-06T04:52:33.922Z,99.90
2018-03-06T04:55:00.054Z,99.90
2018-03-06T04:57:26.184Z,99.90
2018-03-06T04:59:52.725Z,99.90
2018-03-06T05:02:18.870Z,99.90
2018-03-06T05:04:44.964Z,99.90
2018-03-06T05:07:11.091Z,99.90
2018-03-06T05:09:37.151Z,99.90
2018-03-06T05:12:05.147Z,99.90
2018-03-06T05:14:32.020Z,99.90
2018-03-06T05:16:58.156Z,99.90
2018-03-06T05:19:24.792Z,99.90
2018-03-06T05:21:51.183Z,99.90
2018-03-06T05:24:17.301Z,99.90
2018-03-06T05:26:43.369Z,99.90
2018-03-06T05:29:10.347Z,99.90
2018-03-06T05:31:37.262Z,99.90
2018-03-06T05:34:04.448Z,99.90
2018-03-06T05:36:30.897Z,99.90
2018-03-06T05:38:56.950Z,99.90
2018-03-06T05:41:23.450Z,99.90
2018-03-06T05:43:50.867Z,99.90
2018-03-06T05:46:17.006Z,99.90
2018-03-06T05:48:44.035Z,99.90
2018-03-06T05:51:10.154Z,99.90
2018-03-06T05:53:38.218Z,99.90
2018-03-06T05:56:06.186Z,99.90
2018-03-06T05:58:32.453Z,99.90
2018-03-06T06:00:58.740Z,99.90
2018-03-06T06:03:24.872Z,99.90
2018-03-06T06:05:51.446Z,99.90
2018-03-06T06:08:17.569Z,99.90
2018-03-06T06:10:43.646Z,99.90
2018-03-06T06:13:11.231Z,99.90
2018-03-06T06:15:38.054Z,99.90
2018-03-06T06:18:04.335Z,99.90
2018-03-06T06:20:31.166Z,99.90
2018-03-06T06:22:58.449Z,99.90
2018-03-06T06:25:24.497Z,99.90
2018-03-06T06:27:51.380Z,99.90
2018-03-06T06:30:17.714Z,99.90
2018-03-06T06:32:44.671Z,99.90
2018-03-06T06:35:12.125Z,99.90
2018-03-06T06:37:39.062Z,99.90
2018-03-06T06:40:06.767Z,99.90
2018-03-06T06:42:34.023Z,99.90
2018-03-06T06:45:00.248Z,99.90
2018-03-06T06:47:28.009Z,99.90
2018-03-06T06:49:54.695Z,99.90
2018-03-06T06:52:20.965Z,99.90
2018-03-06T06:54:47.113Z,99.90
2018-03-06T06:57:14.507Z,99.90
2018-03-06T06:59:41.940Z,99.90
2018-03-06T07:02:08.099Z,99.90
2018-03-06T07:04:34.330Z,99.90
2018-03-06T07:07:00.993Z,99.90
2018-03-06T07:09:27.227Z,99.90
2018-03-06T07:11:53.918Z,99.90
2018-03-06T07:14:20.394Z,99.90
2018-03-06T07:16:47.487Z,99.90
2018-03-06T07:19:15.162Z,99.90
2018-03-06T07:21:41.393Z,99.90
2018-03-06T07:24:07.624Z,99.90
2018-03-06T07:26:34.807Z,99.90
2018-03-06T07:29:02.234Z,99.90
2018-03-06T07:31:28.455Z,99.90
2018-03-06T07:33:55.070Z,99.90
2018-03-06T07:36:22.457Z,99.90
2018-03-06T07:38:48.711Z,99.90
2018-03-06T07:41:14.912Z,99.90
2018-03-06T07:43:41.266Z,99.90
2018-03-06T07:46:07.894Z,99.90
2018-03-06T07:48:34.270Z,99.90
2018-03-06T07:51:00.725Z,99.90
2018-03-06T07:53:27.714Z,99.90
2018-03-06T07:55:54.740Z,99.90
2018-03-06T07:58:20.943Z,99.90
2018-03-06T08:00:47.069Z,99.90
2018-03-06T08:03:13.828Z,99.90
2018-03-06T08:05:40.059Z,99.90
2018-03-06T08:08:06.471Z,99.90
2018-03-06T08:10:32.738Z,99.90
2018-03-06T08:12:58.877Z,99.90
2018-03-06T08:15:24.968Z,99.90
2018-03-06T08:17:51.185Z,99.90
2018-03-06T08:20:17.348Z,99.90
2018-03-06T08:22:45.302Z,99.90
2018-03-06T08:25:11.414Z,99.90
2018-03-06T08:27:38.642Z,99.90
2018-03-06T08:30:05.541Z,99.90
2018-03-06T08:32:31.944Z,99.90
2018-03-06T08:34:59.374Z,99.90
2018-03-06T08:37:25.546Z,99.90
2018-03-06T08:39:51.749Z,99.90
2018-03-06T08:42:17.963Z,99.90
2018-03-06T08:44:44.401Z,99.90
2018-03-06T08:47:10.624Z,99.90
2018-03-06T08:49:36.758Z,99.90
2018-03-06T08:52:03.087Z,99.90
2018-03-06T08:54:30.028Z,99.90
2018-03-06T08:56:56.820Z,99.90
2018-03-06T08:59:23.816Z,99.90
2018-03-06T09:01:51.264Z,99.90
2018-03-06T09:04:17.858Z,99.90
2018-03-06T09:06:44.902Z,99.90
2018-03-06T09:09:11.745Z,99.90
2018-03-06T09:11:38.948Z,99.90
2018-03-06T09:14:05.880Z,99.90
2018-03-06T09:16:32.120Z,99.90
2018-03-06T09:18:59.010Z,99.90
2018-03-06T09:21:25.285Z,99.90
2018-03-06T09:23:51.661Z,99.90
2018-03-06T09:26:17.836Z,99.90
2018-03-06T09:28:43.989Z,99.90
2018-03-06T09:31:10.311Z,99.90
2018-03-06T09:33:36.428Z,99.90
2018-03-06T09:36:03.438Z,99.90
2018-03-06T09:38:29.658Z,99.90
2018-03-06T09:40:55.803Z,99.90
2018-03-06T09:43:23.325Z,99.90
2018-03-06T09:45:50.373Z,99.90
2018-03-06T09:48:16.592Z,99.90
2018-03-06T09:50:43.890Z,99.90
2018-03-06T09:53:10.116Z,99.90
2018-03-06T09:55:36.222Z,99.90
2018-03-06T09:58:02.514Z,99.90
2018-03-06T10:00:29.520Z,99.90
2018-03-06T10:02:55.603Z,99.90
2018-03-06T10:05:22.436Z,99.90
2018-03-06T10:07:48.553Z,99.90
2018-03-06T10:10:14.700Z,99.90
2018-03-06T10:12:43.008Z,99.90
2018-03-06T10:15:10.303Z,99.90
2018-03-06T10:17:37.189Z,99.90
2018-03-06T10:20:03.401Z,99.90
2018-03-06T10:22:29.621Z,99.90
2018-03-06T10:24:56.361Z,99.90
2018-03-06T10:27:22.911Z,99.90
2018-03-06T10:29:49.850Z,99.90
2018-03-06T10:32:16.067Z,99.90
2018-03-06T10:34:42.230Z,99.90
2018-03-06T10:37:08.341Z,99.90
2018-03-06T10:39:34.642Z,99.90
2018-03-06T10:42:01.613Z,99.90
2018-03-06T10:44:29.454Z,99.90
2018-03-06T10:46:56.441Z,99.90
2018-03-06T10:49:22.770Z,99.90
2018-03-06T10:51:49.434Z,99.90
2018-03-06T10:54:16.122Z,99.90
2018-03-06T10:56:43.965Z,99.90
2018-03-06T10:59:10.120Z,99.90
2018-03-06T11:01:36.247Z,99.90
2018-03-06T11:04:02.461Z,99.90
2018-03-06T11:06:28.782Z,99.90
2018-03-06T11:08:55.340Z,99.90
2018-03-06T11:11:21.589Z,99.90
2018-03-06T11:13:48.034Z,99.90
2018-03-06T11:16:14.646Z,99.90
2018-03-06T11:18:41.687Z,99.90
2018-03-06T11:21:08.313Z,99.90
2018-03-06T11:23:35.664Z,99.90
2018-03-06T11:26:01.891Z,99.90
2018-03-06T11:28:29.188Z,99.90
2018-03-06T11:30:56.211Z,99.90
2018-03-06T11:33:22.983Z,99.90
2018-03-06T11:35:51.893Z,99.90
2018-03-06T11:38:18.052Z,99.90
2018-03-06T11:40:45.466Z,99.90
2018-03-06T11:43:11.943Z,99.90
2018-03-06T11:45:38.883Z,99.90
2018-03-06T11:48:05.108Z,99.90
2018-03-06T11:50:31.546Z,99.90
2018-03-06T11:52:58.081Z,99.90
2018-03-06T11:55:24.179Z,99.90
2018-03-06T11:57:50.878Z,99.90
2018-03-06T12:00:18.104Z,99.90
2018-03-06T12:02:44.297Z,99.90
2018-03-06T12:05:11.799Z,99.90
2018-03-06T12:07:38.580Z,99.90
2018-03-06T12:10:05.812Z,99.90
2018-03-06T12:12:34.284Z,99.90
2018-03-06T12:15:01.871Z,99.90
2018-03-06T12:17:28.369Z,99.90
2018-03-06T12:19:54.714Z,99.90
2018-03-06T12:22:21.594Z,99.90
2018-03-06T12:24:47.666Z,99.90
2018-03-06T12:27:13.831Z,99.90
2018-03-06T12:29:41.310Z,98.80
2018-03-06T12:32:08.251Z,98.50
2018-03-06T12:34:34.894Z,98.50
2018-03-06T12:37:01.138Z,98.40
2018-03-06T12:39:27.244Z,98.30
2018-03-06T12:41:54.087Z,97.40
2018-03-06T12:44:23.946Z,97.50
2018-03-06T12:46:50.070Z,97.50
2018-03-06T12:49:17.101Z,97.60
2018-03-06T12:51:43.292Z,97.70
2018-03-06T12:54:10.243Z,97.40
2018-03-06T12:56:36.756Z,97.00
2018-03-06T12:59:03.319Z,97.00
2018-03-06T13:01:29.554Z,96.50
2018-03-06T13:03:55.779Z,96.20
2018-03-06T13:06:22.806Z,96.00
2018-03-06T13:08:49.193Z,96.00
2018-03-06T13:11:16.719Z,96.60
2018-03-06T13:13:42.897Z,96.70
2018-03-06T13:16:09.434Z,96.20
2018-03-06T13:18:35.557Z,95.80
2018-03-06T13:21:01.771Z,95.50
2018-03-06T13:23:27.898Z,95.90
2018-03-06T13:25:54.239Z,96.00
2018-03-06T13:28:21.502Z,95.90
2018-03-06T13:30:47.654Z,95.90
2018-03-06T13:33:13.911Z,96.10
2018-03-06T13:35:40.186Z,96.40
2018-03-06T13:38:06.674Z,96.00
2018-03-06T13:40:33.651Z,95.80
2018-03-06T13:42:59.796Z,95.80
2018-03-06T13:45:26.935Z,95.60
2018-03-06T13:47:53.820Z,95.00
2018-03-06T13:50:19.920Z,94.90
2018-03-06T13:52:46.077Z,94.70
2018-03-06T13:55:12.539Z,94.80
2018-03-06T13:57:39.481Z,95.20
2018-03-06T14:00:06.086Z,95.10
2018-03-06T14:02:32.371Z,95.20
2018-03-06T14:04:58.673Z,95.20
2018-03-06T14:07:25.229Z,94.80
2018-03-06T14:09:51.594Z,94.50
2018-03-06T14:12:17.896Z,94.30
2018-03-06T14:14:44.127Z,93.90
2018-03-06T14:17:10.153Z,94.10
2018-03-06T14:19:36.375Z,94.00
2018-03-06T14:22:02.608Z,93.90
2018-03-06T14:24:28.752Z,93.70
2018-03-06T14:26:56.620Z,94.30
2018-03-06T14:29:25.592Z,94.10
2018-03-06T14:31:51.825Z,94.00
2018-03-06T14:34:18.158Z,94.10
2018-03-06T14:36:44.383Z,94.10
2018-03-06T14:39:11.569Z,94.00
2018-03-06T14:41:40.538Z,94.00
2018-03-06T14:44:07.537Z,94.00
2018-03-06T14:46:34.176Z,94.00
2018-03-06T14:49:00.353Z,93.80
2018-03-06T14:51:28.111Z,93.30
2018-03-06T14:53:54.257Z,93.40
2018-03-06T14:56:21.206Z,93.40
2018-03-06T14:58:49.107Z,93.30
2018-03-06T15:01:15.333Z,93.70
2018-03-06T15:03:43.063Z,93.70
2018-03-06T15:06:09.441Z,93.70
2018-03-06T15:08:35.610Z,93.50
2018-03-06T15:11:02.401Z,93.50
2018-03-06T15:13:28.613Z,93.40
2018-03-06T15:15:55.278Z,93.60
2018-03-06T15:18:22.954Z,94.20
2018-03-06T15:20:49.816Z,94.00
2018-03-06T15:23:16.332Z,94.30
2018-03-06T15:25:42.804Z,94.20
2018-03-06T15:28:09.934Z,94.20
2018-03-06T15:30:37.444Z,94.60
2018-03-06T15:33:04.038Z,94.50
2018-03-06T15:35:32.194Z,94.40
2018-03-06T15:37:58.844Z,94.30
2018-03-06T15:40:25.029Z,94.10
2018-03-06T15:42:51.800Z,94.40
2018-03-06T15:45:17.916Z,94.40
2018-03-06T15:47:44.271Z,94.50
2018-03-06T15:50:10.409Z,94.90
2018-03-06T15:52:37.613Z,94.90
2018-03-06T15:55:04.805Z,94.40
2018-03-06T15:57:31.078Z,94.40
2018-03-06T15:59:58.290Z,94.30
2018-03-06T16:02:24.506Z,94.50
2018-03-06T16:04:51.208Z,94.40
2018-03-06T16:07:17.486Z,94.60
2018-03-06T16:09:44.306Z,95.00
2018-03-06T16:12:10.836Z,95.00
2018-03-06T16:14:37.587Z,95.10
2018-03-06T16:17:06.080Z,95.20
2018-03-06T16:19:33.413Z,95.00
2018-03-06T16:22:00.310Z,95.10
2018-03-06T16:24:28.683Z,95.70
2018-03-06T16:26:55.279Z,95.40
2018-03-06T16:29:21.713Z,95.70
2018-03-06T16:31:48.006Z,96.20
2018-03-06T16:34:15.184Z,96.40
2018-03-06T16:36:44.453Z,96.60
2018-03-06T16:39:11.343Z,96.80
2018-03-06T16:41:38.591Z,96.90
2018-03-06T16:44:04.943Z,97.10
2018-03-06T16:46:31.257Z,97.40
2018-03-06T16:48:58.221Z,97.10
2018-03-06T16:51:25.334Z,97.40
2018-03-06T16:53:51.885Z,97.80
2018-03-06T16:56:17.956Z,97.90
2018-03-06T16:58:45.963Z,98.30
2018-03-06T17:01:12.890Z,99.40
2018-03-06T17:03:41.354Z,99.40
2018-03-06T17:06:08.173Z,99.90
2018-03-06T17:08:36.002Z,99.90
2018-03-06T17:11:02.900Z,99.90
2018-03-06T17:13:29.922Z,99.90
2018-03-06T17:15:57.222Z,99.90
2018-03-06T17:18:23.767Z,99.90
2018-03-06T17:20:51.271Z,99.90
2018-03-06T17:23:18.141Z,99.90
2018-03-06T17:25:44.829Z,99.90
2018-03-06T17:28:11.032Z,99.90
2018-03-06T17:30:38.258Z,99.90
2018-03-06T17:33:05.922Z,99.90
2018-03-06T17:35:32.057Z,99.90
2018-03-06T17:37:58.232Z,99.90
2018-03-06T17:40:24.386Z,99.90
2018-03-06T17:42:50.484Z,99.90
2018-03-06T17:45:16.633Z,99.90
2018-03-06T17:47:42.685Z,99.90
2018-03-06T17:50:08.810Z,99.90
2018-03-06T17:52:35.565Z,99.90
2018-03-06T17:55:01.623Z,99.90
2018-03-06T17:57:37.067Z,99.90
2018-03-06T18:00:05.306Z,99.90
2018-03-06T18:02:31.449Z,99.90
2018-03-06T18:04:57.481Z,99.90
2018-03-06T18:07:24.106Z,99.90
2018-03-06T18:09:51.200Z,99.90
2018-03-06T18:12:18.100Z,99.90
2018-03-06T18:14:44.279Z,99.90
2018-03-06T18:17:11.224Z,99.90
2018-03-06T18:19:37.319Z,99.90
2018-03-06T18:22:03.783Z,99.90
2018-03-06T18:24:30.440Z,99.90
2018-03-06T18:26:58.238Z,99.90
2018-03-06T18:29:24.956Z,99.90
2018-03-06T18:31:51.310Z,99.90
2018-03-06T18:34:18.222Z,99.90
2018-03-06T18:36:45.073Z,99.90
2018-03-06T18:39:12.373Z,99.90
2018-03-06T18:41:39.216Z,99.90
2018-03-06T18:44:07.315Z,99.90
2018-03-06T18:46:34.539Z,99.90
2018-03-06T18:49:00.771Z,99.90
2018-03-06T18:51:28.156Z,99.90
2018-03-06T18:53:54.880Z,99.90
2018-03-06T18:56:21.802Z,99.90
2018-03-06T18:58:48.858Z,99.90
2018-03-06T19:04:41.082Z,99.90
2018-03-06T19:07:07.440Z,99.90
2018-03-06T19:09:34.698Z,99.90
2018-03-06T19:12:01.008Z,99.90
2018-03-06T19:14:29.163Z,99.90
2018-03-06T19:16:55.651Z,99.90
2018-03-06T19:19:21.955Z,99.90
2018-03-06T19:21:48.943Z,99.90
2018-03-06T19:26:48.487Z,99.90
2018-03-06T19:29:15.669Z,99.90
2018-03-06T19:31:42.640Z,99.90
2018-03-06T19:34:08.941Z,99.90
2018-03-06T19:36:35.118Z,99.90
2018-03-06T19:39:02.142Z,99.90
2018-03-06T19:41:29.239Z,99.90
2018-03-06T19:43:55.649Z,99.90
2018-03-06T19:46:21.808Z,99.90
2018-03-06T19:48:49.906Z,99.90
2018-03-06T19:51:16.513Z,99.90
2018-03-06T19:53:42.659Z,99.90
2018-03-06T19:56:08.756Z,99.90
2018-03-06T19:58:36.135Z,99.90
2018-03-06T20:01:02.838Z,99.90
2018-03-06T20:03:29.585Z,99.90
2018-03-06T20:05:56.127Z,99.90
2018-03-06T20:08:22.866Z,99.90
2018-03-06T20:10:49.775Z,99.90
2018-03-06T20:13:15.941Z,99.90
2018-03-06T20:15:44.625Z,99.90
2018-03-06T20:18:10.773Z,99.90
2018-03-06T20:20:37.308Z,99.90
2018-03-06T20:23:04.352Z,99.90
2018-03-06T20:25:37.618Z,99.90
2018-03-06T20:28:04.357Z,99.90
2018-03-06T20:30:36.801Z,99.90
2018-03-06T20:33:09.325Z,99.90
2018-03-06T20:35:36.202Z,99.90
2018-03-06T20:38:03.039Z,99.90
2018-03-06T20:40:30.858Z,99.90
2018-03-06T20:42:57.259Z,99.90
2018-03-06T20:45:23.482Z,99.90
2018-03-06T20:47:50.160Z,99.90
2018-03-06T20:50:17.270Z,99.90
2018-03-06T20:52:52.457Z,99.90
2018-03-06T20:55:18.576Z,99.90
2018-03-06T20:57:44.696Z,99.90
2018-03-06T21:00:11.593Z,99.90
2018-03-06T21:02:38.920Z,99.90
2018-03-06T21:05:05.208Z,99.90
2018-03-06T21:07:32.591Z,99.90
2018-03-06T21:09:59.517Z,99.90
2018-03-06T21:12:25.754Z,99.90
2018-03-06T21:14:51.825Z,99.90
2018-03-06T21:17:18.061Z,99.90
2018-03-06T21:19:44.724Z,99.90
2018-03-06T21:22:10.825Z,99.90
2018-03-06T21:24:37.992Z,99.90
2018-03-06T21:27:04.386Z,99.90
2018-03-06T21:29:30.947Z,99.90
2018-03-06T21:31:57.170Z,99.90
2018-03-06T21:34:25.152Z,99.90
2018-03-06T21:36:51.687Z,99.90
2018-03-06T21:39:18.703Z,99.90
2018-03-06T21:41:44.762Z,99.90
2018-03-06T21:44:12.417Z,99.90
2018-03-06T21:46:40.064Z,99.90
2018-03-06T21:49:08.152Z,99.90
2018-03-06T21:51:35.736Z,99.90
2018-03-06T21:54:01.934Z,99.90
2018-03-06T21:56:28.069Z,99.90
2018-03-06T21:58:57.403Z,99.90
2018-03-06T22:01:23.551Z,99.90
2018-03-06T22:03:51.311Z,99.90
2018-03-06T22:06:17.894Z,99.90
2018-03-06T22:08:44.483Z,99.90
2018-03-06T22:11:11.451Z,99.90
2018-03-06T22:13:37.637Z,99.90
2018-03-06T22:16:03.857Z,99.90
2018-03-06T22:18:31.056Z,99.90
2018-03-06T22:20:57.971Z,99.90
2018-03-06T22:23:24.208Z,99.90
2018-03-06T22:25:50.419Z,99.90
2018-03-06T22:28:16.537Z,99.90
2018-03-06T22:30:43.162Z,99.90
2018-03-06T22:33:10.072Z,99.90
2018-03-06T22:35:36.252Z,99.90
2018-03-06T22:38:02.521Z,99.90
2018-03-06T22:40:28.798Z,99.90
2018-03-06T22:42:54.925Z,99.90
2018-03-06T22:45:21.179Z,99.90
2018-03-06T22:47:47.353Z,99.90
2018-03-06T22:50:13.442Z,99.90
2018-03-06T22:52:39.689Z,99.90
2018-03-06T22:55:06.072Z,99.90
2018-03-06T22:57:33.445Z,99.90
2018-03-06T22:59:59.701Z,99.90
2018-03-06T23:02:25.964Z,99.90
2018-03-06T23:04:52.286Z,99.90
2018-03-06T23:07:19.969Z,99.90
2018-03-06T23:09:47.521Z,99.90
2018-03-06T23:12:15.302Z,99.90
2018-03-06T23:14:42.698Z,99.90
2018-03-06T23:17:08.983Z,99.90
2018-03-06T23:19:35.901Z,99.90
2018-03-06T23:22:02.201Z,99.90
2018-03-06T23:24:29.492Z,99.90
2018-03-06T23:26:56.053Z,99.90
2018-03-06T23:29:22.986Z,99.90
2018-03-06T23:31:49.293Z,99.90
2018-03-06T23:34:15.771Z,99.90
2018-03-06T23:36:42.344Z,99.90
2018-03-06T23:39:08.626Z,99.90
2018-03-06T23:41:36.486Z,99.90
2018-03-06T23:44:03.091Z,99.90
2018-03-06T23:46:30.428Z,99.90
2018-03-06T23:48:57.255Z,99.90
2018-03-06T23:51:24.578Z,99.90
2018-03-06T23:53:52.068Z,99.90
2018-03-06T23:56:18.917Z,99.90
2018-03-06T23:58:45.108Z,99.90
